Lewistown, MT (59457)

3:20 PM MDT on July 23, 2016 (GMT -0600)
3/4 mile S of Lewistown | | Change Station

Elev 4189 ft 47.04 °N, 109.42 °W | Updated 1 second ago

Clear
Clear
72.7 °F
Feels Like 77 °F
N
17.0
Wind Variable Wind from WSW
Gusts 26.0 mph

Today
High -- | Low -- °F
--% Chance of Precip.
Yesterday
High -- | Low -- °F
Precip. -- in
Pressure 30.00 in
Visibility 10.0 miles
Clouds Clear
Heat Index 77 °F
Dew Point 51 °F
Humidity 46%
Rainfall 0.00 in
Snow Depth Not available.
5:46 AM 9:00 PM
Waning Gibbous, 82% visible
METAR KLWT 232054Z AUTO 32009G24KT 10SM CLR 24/07 A3009 RMK AO2 SLP157 T02440067 55002
Pressure 30.00 in
Visibility 10.0 miles
Clouds Clear
Heat Index 77 °F
Dew Point 51 °F
Humidity 46%
Rainfall 0.00 in
Snow Depth Not available.
5:46 AM 9:00 PM
Waning Gibbous, 82% visible
METAR KLWT 232054Z AUTO 32009G24KT 10SM CLR 24/07 A3009 RMK AO2 SLP157 T02440067 55002

10-Day Weather Forecast

Almanac

Astronomy

Jul. 23, 2016 Rise Set
Actual Time
Civil Twilight
Nautical Twilight
Astronomical Twilight
Moon
Length of Visible Light
Length of Day
Tomorrow will be .
, % of the Moon is Illuminated

Today's Extremes

State Highs State Lows

Community

WunderPhotos

Upload Photos

1,926,927 photos uploaded!

WunderBlog® & News

Nearby

Air Quality

  Air Quality AQ Index Pollutant
Not available.

Snow Depth

Station Depth Elevation

Earthquake Activity

City Distance Mag. Time & Date
Minimum magnitude displayed is 2.5.

Coastal Water Temperatures

Place Temperature

Stations

Nearby Weather Stations

Station Location Temp. Windchill Dew Point Humidity Wind Precip. Elev Updated Type
                   

Watches & Warnings

There are currently no watches in effect.